createdAt,value
2017-06-22T00:05:53.930Z,1004.2
2017-06-22T00:16:02.633Z,1004
2017-06-22T00:26:11.447Z,1003.7
2017-06-22T00:36:20.273Z,1003.8
2017-06-22T00:46:29.115Z,1003.9
2017-06-22T00:56:37.940Z,1004
2017-06-22T01:06:46.922Z,1003.9
2017-06-22T01:16:55.818Z,1004
2017-06-22T01:27:04.786Z,1004
2017-06-22T01:37:13.816Z,1003.9
2017-06-22T01:47:22.813Z,1003.7
2017-06-22T01:57:31.895Z,1003.6
2017-06-22T02:07:41.001Z,1003.6
2017-06-22T02:17:50.035Z,1003.5
2017-06-22T02:27:59.133Z,1003.3
2017-06-22T02:38:08.212Z,1003.3
2017-06-22T02:48:17.237Z,1003.1
2017-06-22T02:58:26.310Z,1003
2017-06-22T03:08:35.379Z,1003
2017-06-22T03:18:44.514Z,1003
2017-06-22T03:28:53.644Z,1002.8
2017-06-22T03:39:02.693Z,1002.8
2017-06-22T03:49:11.654Z,1002.7
2017-06-22T03:59:20.571Z,1002.6
2017-06-22T04:09:29.436Z,1002.7
2017-06-22T04:19:38.281Z,1002.7
2017-06-22T04:29:47.136Z,1002.6
2017-06-22T04:39:55.793Z,1002.6
2017-06-22T04:50:04.389Z,1002.4
2017-06-22T05:00:12.905Z,1002.4
2017-06-22T05:10:21.321Z,1002.2
2017-06-22T05:20:29.704Z,1002.2
2017-06-22T05:30:38.005Z,1002
2017-06-22T05:40:46.122Z,1001.8
2017-06-22T05:50:54.149Z,1001.9
2017-06-22T06:01:02.073Z,1001.7
2017-06-22T06:11:09.838Z,1001.6
2017-06-22T06:21:17.506Z,1001.6
2017-06-22T06:31:25.072Z,1001.5
2017-06-22T06:41:32.510Z,1001.5
2017-06-22T06:51:39.805Z,1001.6
2017-06-22T07:01:47.016Z,1001.4
2017-06-22T07:11:54.236Z,1001.4
2017-06-22T07:22:01.243Z,1001.3
2017-06-22T07:32:08.217Z,1001.2
2017-06-22T07:42:15.044Z,1001.2
2017-06-22T07:52:21.824Z,1001.1
2017-06-22T08:02:28.584Z,1000.9
2017-06-22T08:12:35.321Z,1000.8
2017-06-22T08:22:41.897Z,1000.6
2017-06-22T08:32:48.478Z,1000.7
2017-06-22T08:42:54.936Z,1000.5
2017-06-22T08:53:01.305Z,1000.4
2017-06-22T09:03:07.685Z,1000.3
2017-06-22T09:13:14.040Z,1000.2
2017-06-22T09:23:20.276Z,1000.3
2017-06-22T09:33:26.496Z,1000.1
2017-06-22T09:43:32.768Z,1000.1
2017-06-22T09:53:38.991Z,1000.1
2017-06-22T10:03:45.124Z,1000
2017-06-22T10:13:51.238Z,1000
2017-06-22T10:23:57.365Z,1000.1
2017-06-22T10:34:03.490Z,999.9
2017-06-22T10:44:09.715Z,1000
2017-06-22T10:54:15.999Z,999.6
2017-06-22T11:04:22.357Z,999.6
2017-06-22T11:14:28.517Z,999.8
2017-06-22T11:24:34.798Z,999.7
2017-06-22T11:34:41.085Z,999.7
2017-06-22T11:44:47.397Z,999.6
2017-06-22T11:54:53.624Z,999.5
2017-06-22T12:04:59.821Z,999.4
2017-06-22T12:15:05.976Z,999.3
2017-06-22T12:25:12.146Z,999.4
2017-06-22T12:35:18.341Z,999
2017-06-22T12:45:24.503Z,998.9
2017-06-22T12:55:30.678Z,998.9
2017-06-22T13:05:36.899Z,998.6
2017-06-22T13:15:43.166Z,998.6
2017-06-22T13:25:49.267Z,998.2
2017-06-22T13:35:55.398Z,998.2
2017-06-22T13:46:01.537Z,997.9
2017-06-22T13:56:07.646Z,997.8
2017-06-22T14:06:13.691Z,998
2017-06-22T14:16:19.788Z,997.8
2017-06-22T14:26:25.947Z,997.7
2017-06-22T14:36:32.170Z,997.4
2017-06-22T14:46:38.400Z,997.4
2017-06-22T14:56:44.653Z,997.5
2017-06-22T15:06:50.720Z,997.3
2017-06-22T15:16:56.945Z,997.1
2017-06-22T15:27:03.184Z,997.2
2017-06-22T15:37:09.435Z,996.7
2017-06-22T15:47:15.759Z,996.8
2017-06-22T15:57:22.327Z,997.1
2017-06-22T16:07:28.593Z,997.1
2017-06-22T16:17:35.146Z,997
2017-06-22T16:27:41.899Z,997
2017-06-22T16:37:48.539Z,996.8
2017-06-22T16:47:55.139Z,996.8
2017-06-22T16:58:01.936Z,997.1
2017-06-22T17:08:09.037Z,997.3
2017-06-22T17:18:16.389Z,996.6
2017-06-22T17:28:23.600Z,996.9
2017-06-22T17:38:30.956Z,997.5
2017-06-22T17:48:38.494Z,997.5
2017-06-22T17:58:46.049Z,997.2
2017-06-22T18:08:53.677Z,997.6
2017-06-22T18:19:01.456Z,998.1
2017-06-22T18:29:09.325Z,997.8
2017-06-22T18:39:17.179Z,998.6
2017-06-22T18:49:25.257Z,998.5
2017-06-22T18:59:33.474Z,998.9
2017-06-22T19:09:41.789Z,999.8
2017-06-22T19:19:50.025Z,999.3
2017-06-22T19:29:58.402Z,1000.2
2017-06-22T19:40:06.876Z,999.7
2017-06-22T19:50:15.457Z,1000
2017-06-22T20:00:24.161Z,1000
2017-06-22T20:10:32.969Z,1000.2
2017-06-22T20:20:41.865Z,1000.3
2017-06-22T20:30:50.779Z,1000.4
2017-06-22T20:40:59.695Z,1000.3
2017-06-22T20:51:08.631Z,1000.4
2017-06-22T21:01:17.612Z,1000.4
2017-06-22T21:11:26.575Z,1000.5
2017-06-22T21:21:35.499Z,1000.5
2017-06-22T21:31:44.456Z,1000.7
2017-06-22T21:41:53.429Z,1000.8
2017-06-22T21:52:02.390Z,1000.7
2017-06-22T22:02:11.377Z,1000.8
2017-06-22T22:12:20.417Z,1001
2017-06-22T22:22:29.439Z,1001.1
2017-06-22T22:32:38.476Z,1001
2017-06-22T22:42:47.532Z,1001
2017-06-22T22:52:56.585Z,1001
2017-06-22T23:03:05.592Z,1001.3
2017-06-22T23:13:14.664Z,1001.4
2017-06-22T23:23:23.749Z,1001.5
2017-06-22T23:33:32.861Z,1001.5
2017-06-22T23:43:42.019Z,1001.5
2017-06-22T23:53:51.163Z,1001.7
